createdAt,value
2023-01-07T00:07:16.521Z,0
2023-01-07T00:16:53.646Z,0
2023-01-07T00:26:30.641Z,0
2023-01-07T00:36:07.065Z,0
2023-01-07T00:45:44.028Z,0
2023-01-07T00:55:21.027Z,0
2023-01-07T01:04:58.570Z,0
2023-01-07T01:14:35.271Z,0
2023-01-07T01:24:12.931Z,0
2023-01-07T01:33:50.276Z,0
2023-01-07T01:43:28.085Z,0
2023-01-07T01:53:05.370Z,0
2023-01-07T02:02:42.920Z,0
2023-01-07T02:12:19.839Z,0
2023-01-07T02:21:57.296Z,0
2023-01-07T02:31:34.271Z,0
2023-01-07T02:41:11.291Z,0
2023-01-07T03:00:25.376Z,0
2023-01-07T03:10:01.874Z,0
2023-01-07T03:19:38.966Z,0
2023-01-07T03:29:15.746Z,0
2023-01-07T03:38:53.127Z,0
2023-01-07T03:48:30.381Z,0
2023-01-07T03:58:07.977Z,0
2023-01-07T04:07:44.926Z,0
2023-01-07T04:17:22.051Z,0
2023-01-07T04:26:58.952Z,0
2023-01-07T04:36:35.867Z,0
2023-01-07T04:46:12.924Z,0
2023-01-07T04:55:50.136Z,0
2023-01-07T05:05:27.297Z,0
2023-01-07T05:15:04.984Z,0
2023-01-07T05:24:42.154Z,0
2023-01-07T05:34:19.357Z,0
2023-01-07T05:43:56.315Z,0
2023-01-07T05:53:33.752Z,0
2023-01-07T06:03:10.819Z,0
2023-01-07T06:12:48.319Z,0
2023-01-07T06:22:25.354Z,0
2023-01-07T06:32:02.959Z,0
2023-01-07T06:41:39.901Z,0
2023-01-07T06:51:18.102Z,1.67
2023-01-07T07:00:55.686Z,13.33
2023-01-07T07:10:33.212Z,34.17
2023-01-07T07:20:10.348Z,71.67
2023-01-07T07:29:47.387Z,138.33
2023-01-07T07:39:24.420Z,249.17
2023-01-07T07:49:01.943Z,294.17
2023-01-07T07:58:38.803Z,389.17
2023-01-07T08:08:15.889Z,352.5
2023-01-07T08:27:31.215Z,245
2023-01-07T08:37:08.526Z,264.17
2023-01-07T08:46:46.081Z,319.17
2023-01-07T08:56:23.371Z,233.33
2023-01-07T09:06:00.539Z,241.67
2023-01-07T09:15:38.011Z,411.67
2023-01-07T09:25:15.786Z,361.67
2023-01-07T09:34:53.130Z,476.67
2023-01-07T09:44:30.290Z,370
2023-01-07T09:54:07.418Z,310
2023-01-07T10:03:44.877Z,460.83
2023-01-07T10:13:23.340Z,429.17
2023-01-07T10:23:00.030Z,371.67
2023-01-07T10:32:37.055Z,409.17
2023-01-07T10:42:14.956Z,381.67
2023-01-07T10:51:52.253Z,300.83
2023-01-07T11:01:29.661Z,314.17
2023-01-07T11:11:06.507Z,346.67
2023-01-07T11:20:43.822Z,535.83
2023-01-07T11:30:21.089Z,515
2023-01-07T11:39:58.700Z,640.83
2023-01-07T11:49:36.347Z,456.67
2023-01-07T11:59:13.887Z,554.17
2023-01-07T12:08:51.059Z,742.5
2023-01-07T12:18:28.442Z,417.5
2023-01-07T12:28:05.279Z,335.83
2023-01-07T12:37:42.791Z,358.33
2023-01-07T12:47:30.165Z,439.17
2023-01-07T12:56:57.753Z,1080.83
2023-01-07T13:06:35.477Z,875
2023-01-07T13:16:12.686Z,502.5
2023-01-07T13:25:49.551Z,480.83
2023-01-07T13:35:27.004Z,288.33
2023-01-07T13:45:03.642Z,234.17
2023-01-07T13:54:40.626Z,190.83
2023-01-07T14:04:17.450Z,185
2023-01-07T14:13:54.598Z,166.67
2023-01-07T14:23:31.814Z,198.33
2023-01-07T14:33:08.748Z,106.67
2023-01-07T14:42:46.037Z,74.17
2023-01-07T14:52:23.303Z,50.83
2023-01-07T15:01:59.741Z,46.67
2023-01-07T15:11:36.525Z,30.83
2023-01-07T15:21:13.610Z,16.67
2023-01-07T15:30:50.865Z,9.17
2023-01-07T15:40:27.905Z,2.5
2023-01-07T15:50:05.337Z,0.83
2023-01-07T15:59:42.393Z,0
2023-01-07T16:09:19.842Z,0
2023-01-07T16:18:56.697Z,0
2023-01-07T16:28:34.941Z,0
2023-01-07T16:38:10.866Z,0
2023-01-07T16:47:48.591Z,0
2023-01-07T16:57:25.642Z,0
2023-01-07T17:07:03.098Z,0
2023-01-07T17:16:39.918Z,0
2023-01-07T17:26:17.032Z,0
2023-01-07T17:35:53.704Z,0
2023-01-07T17:45:30.894Z,0
2023-01-07T17:55:07.914Z,0
2023-01-07T18:04:45.373Z,0
2023-01-07T18:14:22.054Z,0
2023-01-07T18:23:58.770Z,0
2023-01-07T18:33:35.748Z,0
2023-01-07T18:43:12.200Z,0
2023-01-07T18:52:48.123Z,0
2023-01-07T19:02:24.769Z,0
2023-01-07T19:12:01.186Z,0
2023-01-07T19:21:37.956Z,0
2023-01-07T19:31:13.973Z,0
2023-01-07T19:40:51.067Z,0
2023-01-07T19:50:27.657Z,0
2023-01-07T20:00:09.221Z,0
2023-01-07T20:09:40.567Z,0
2023-01-07T20:19:22.768Z,0
2023-01-07T20:28:53.367Z,0
2023-01-07T20:38:30.062Z,0
2023-01-07T20:48:07.049Z,0
2023-01-07T20:57:44.607Z,0
2023-01-07T21:07:22.183Z,0
2023-01-07T21:16:59.623Z,0
2023-01-07T21:26:37.115Z,0
2023-01-07T21:36:14.292Z,0
2023-01-07T21:45:51.412Z,0
2023-01-07T21:55:28.719Z,0
2023-01-07T22:05:05.394Z,0.83
2023-01-07T22:14:42.188Z,0
2023-01-07T22:24:19.346Z,0
2023-01-07T22:33:56.502Z,0
2023-01-07T22:43:33.613Z,0
2023-01-07T22:53:10.895Z,0
2023-01-07T23:02:48.416Z,0
2023-01-07T23:12:25.751Z,0
2023-01-07T23:22:04.814Z,0
2023-01-07T23:31:40.557Z,0
2023-01-07T23:41:17.603Z,0
2023-01-07T23:50:54.419Z,0
